sensor_id;sensor_type;location;lat;lon;timestamp;pressure;altitude;pressure_sealevel;temperature;humidity
22743;BME280;11538;48.884;8.696;2022-10-16T00:00:54;98595.69;;;15.75;100.00
22743;BME280;11538;48.884;8.696;2022-10-16T00:03:21;98584.06;;;15.78;100.00
22743;BME280;11538;48.884;8.696;2022-10-16T00:05:59;98580.66;;;15.81;100.00
22743;BME280;11538;48.884;8.696;2022-10-16T00:08:27;98583.38;;;15.81;100.00
22743;BME280;11538;48.884;8.696;2022-10-16T00:10:59;98584.75;;;15.75;100.00
22743;BME280;11538;48.884;8.696;2022-10-16T00:13:26;98578.38;;;15.71;100.00
22743;BME280;11538;48.884;8.696;2022-10-16T00:15:55;98576.66;;;15.66;100.00
22743;BME280;11538;48.884;8.696;2022-10-16T00:18:23;98581.53;;;15.60;100.00
22743;BME280;11538;48.884;8.696;2022-10-16T00:20:50;98587.34;;;15.59;100.00
22743;BME280;11538;48.884;8.696;2022-10-16T00:23:17;98592.81;;;15.59;100.00
22743;BME280;11538;48.884;8.696;2022-10-16T00:25:44;98591.69;;;15.60;100.00
22743;BME280;11538;48.884;8.696;2022-10-16T00:28:11;98598.75;;;15.61;100.00
22743;BME280;11538;48.884;8.696;2022-10-16T00:30:39;98591.00;;;15.63;100.00
22743;BME280;11538;48.884;8.696;2022-10-16T00:33:06;98582.44;;;15.64;100.00
22743;BME280;11538;48.884;8.696;2022-10-16T00:35:33;98596.13;;;15.64;100.00
22743;BME280;11538;48.884;8.696;2022-10-16T00:38:00;98586.31;;;15.63;100.00
22743;BME280;11538;48.884;8.696;2022-10-16T00:40:26;98592.16;;;15.62;100.00
22743;BME280;11538;48.884;8.696;2022-10-16T00:42:54;98590.53;;;15.61;100.00
22743;BME280;11538;48.884;8.696;2022-10-16T00:45:21;98594.53;;;15.63;100.00
22743;BME280;11538;48.884;8.696;2022-10-16T00:47:48;98595.00;;;15.65;100.00
22743;BME280;11538;48.884;8.696;2022-10-16T00:50:23;98596.94;;;15.65;100.00
22743;BME280;11538;48.884;8.696;2022-10-16T00:52:53;98584.41;;;15.64;100.00
22743;BME280;11538;48.884;8.696;2022-10-16T00:55:21;98591.34;;;15.61;100.00
22743;BME280;11538;48.884;8.696;2022-10-16T00:57:48;98585.09;;;15.61;100.00
22743;BME280;11538;48.884;8.696;2022-10-16T01:00:20;98581.88;;;15.59;100.00
22743;BME280;11538;48.884;8.696;2022-10-16T01:02:59;98583.81;;;15.58;100.00
22743;BME280;11538;48.884;8.696;2022-10-16T01:05:32;98590.09;;;15.59;100.00
22743;BME280;11538;48.884;8.696;2022-10-16T01:08:09;98600.66;;;15.60;100.00
22743;BME280;11538;48.884;8.696;2022-10-16T01:10:56;98605.13;;;15.65;100.00
22743;BME280;11538;48.884;8.696;2022-10-16T01:13:32;98614.03;;;15.74;100.00
22743;BME280;11538;48.884;8.696;2022-10-16T01:16:06;98617.47;;;15.84;100.00
22743;BME280;11538;48.884;8.696;2022-10-16T01:18:45;98614.56;;;15.89;100.00
22743;BME280;11538;48.884;8.696;2022-10-16T01:21:16;98607.94;;;15.90;100.00
22743;BME280;11538;48.884;8.696;2022-10-16T01:29:16;98601.47;;;15.95;100.00
22743;BME280;11538;48.884;8.696;2022-10-16T01:31:50;98598.06;;;15.98;100.00
22743;BME280;11538;48.884;8.696;2022-10-16T01:34:35;98593.50;;;16.02;100.00
22743;BME280;11538;48.884;8.696;2022-10-16T01:37:14;98595.56;;;16.05;100.00
22743;BME280;11538;48.884;8.696;2022-10-16T01:39:45;98605.69;;;16.04;100.00
22743;BME280;11538;48.884;8.696;2022-10-16T01:42:18;98605.34;;;16.06;100.00
22743;BME280;11538;48.884;8.696;2022-10-16T01:44:47;98604.53;;;16.05;100.00
22743;BME280;11538;48.884;8.696;2022-10-16T01:47:15;98605.34;;;16.06;100.00
22743;BME280;11538;48.884;8.696;2022-10-16T01:49:44;98609.69;;;16.07;100.00
22743;BME280;11538;48.884;8.696;2022-10-16T01:52:19;98604.69;;;16.09;100.00
22743;BME280;11538;48.884;8.696;2022-10-16T01:54:51;98596.00;;;16.07;100.00
22743;BME280;11538;48.884;8.696;2022-10-16T01:57:21;98599.88;;;16.06;100.00
22743;BME280;11538;48.884;8.696;2022-10-16T01:59:51;98594.41;;;16.06;100.00
22743;BME280;11538;48.884;8.696;2022-10-16T02:02:22;98595.88;;;16.03;100.00
22743;BME280;11538;48.884;8.696;2022-10-16T02:04:53;98595.78;;;16.00;100.00
22743;BME280;11538;48.884;8.696;2022-10-16T02:07:21;98587.13;;;15.98;100.00
22743;BME280;11538;48.884;8.696;2022-10-16T02:09:48;98589.41;;;15.96;100.00
22743;BME280;11538;48.884;8.696;2022-10-16T02:12:21;98583.47;;;15.93;100.00
22743;BME280;11538;48.884;8.696;2022-10-16T02:14:50;98581.88;;;15.92;100.00
22743;BME280;11538;48.884;8.696;2022-10-16T02:17:17;98590.06;;;15.92;100.00
22743;BME280;11538;48.884;8.696;2022-10-16T02:19:46;98590.84;;;15.93;100.00
22743;BME280;11538;48.884;8.696;2022-10-16T02:22:42;98601.94;;;15.97;100.00
22743;BME280;11538;48.884;8.696;2022-10-16T02:25:19;98603.53;;;15.98;100.00
22743;BME280;11538;48.884;8.696;2022-10-16T02:28:02;98599.19;;;15.97;100.00
22743;BME280;11538;48.884;8.696;2022-10-16T02:30:35;98605.13;;;15.99;100.00
22743;BME280;11538;48.884;8.696;2022-10-16T02:33:05;98601.25;;;16.00;100.00
22743;BME280;11538;48.884;8.696;2022-10-16T02:35:33;98596.56;;;16.00;100.00
22743;BME280;11538;48.884;8.696;2022-10-16T02:38:01;98602.84;;;16.01;100.00
22743;BME280;11538;48.884;8.696;2022-10-16T02:40:28;98609.47;;;16.00;100.00
22743;BME280;11538;48.884;8.696;2022-10-16T02:42:55;98603.16;;;15.99;100.00
22743;BME280;11538;48.884;8.696;2022-10-16T02:45:23;98612.19;;;16.00;100.00
22743;BME280;11538;48.884;8.696;2022-10-16T02:47:50;98610.59;;;15.99;100.00
22743;BME280;11538;48.884;8.696;2022-10-16T02:50:16;98608.66;;;15.99;100.00
22743;BME280;11538;48.884;8.696;2022-10-16T02:52:43;98616.84;;;15.99;100.00
22743;BME280;11538;48.884;8.696;2022-10-16T02:55:10;98612.06;;;15.96;100.00
22743;BME280;11538;48.884;8.696;2022-10-16T02:57:37;98612.75;;;15.93;100.00
22743;BME280;11538;48.884;8.696;2022-10-16T03:00:05;98612.28;;;15.91;100.00
22743;BME280;11538;48.884;8.696;2022-10-16T03:02:31;98609.88;;;15.89;100.00
22743;BME280;11538;48.884;8.696;2022-10-16T03:04:58;98611.34;;;15.87;100.00
22743;BME280;11538;48.884;8.696;2022-10-16T03:07:25;98609.28;;;15.84;100.00
22743;BME280;11538;48.884;8.696;2022-10-16T03:09:52;98608.47;;;15.83;100.00
22743;BME280;11538;48.884;8.696;2022-10-16T03:12:19;98617.34;;;15.80;100.00
22743;BME280;11538;48.884;8.696;2022-10-16T03:14:46;98615.28;;;15.77;100.00
22743;BME280;11538;48.884;8.696;2022-10-16T03:17:13;98618.03;;;15.77;100.00
22743;BME280;11538;48.884;8.696;2022-10-16T03:19:43;98621.09;;;15.75;100.00
22743;BME280;11538;48.884;8.696;2022-10-16T03:22:09;98611.63;;;15.73;100.00
22743;BME280;11538;48.884;8.696;2022-10-16T03:24:36;98607.97;;;15.69;100.00
22743;BME280;11538;48.884;8.696;2022-10-16T03:27:03;98616.53;;;15.67;100.00
22743;BME280;11538;48.884;8.696;2022-10-16T03:29:30;98613.44;;;15.69;100.00
22743;BME280;11538;48.884;8.696;2022-10-16T03:31:59;98619.38;;;15.71;100.00
22743;BME280;11538;48.884;8.696;2022-10-16T03:34:25;98619.72;;;15.69;100.00
22743;BME280;11538;48.884;8.696;2022-10-16T03:36:52;98612.66;;;15.68;100.00
22743;BME280;11538;48.884;8.696;2022-10-16T03:39:19;98612.22;;;15.66;100.00
22743;BME280;11538;48.884;8.696;2022-10-16T03:41:46;98619.59;;;15.65;100.00
22743;BME280;11538;48.884;8.696;2022-10-16T03:44:13;98610.94;;;15.63;100.00
22743;BME280;11538;48.884;8.696;2022-10-16T03:46:40;98613.56;;;15.60;100.00
22743;BME280;11538;48.884;8.696;2022-10-16T03:49:07;98616.16;;;15.56;100.00
22743;BME280;11538;48.884;8.696;2022-10-16T03:51:35;98626.63;;;15.54;100.00
22743;BME280;11538;48.884;8.696;2022-10-16T03:54:02;98627.09;;;15.56;100.00
22743;BME280;11538;48.884;8.696;2022-10-16T03:56:29;98618.09;;;15.56;100.00
22743;BME280;11538;48.884;8.696;2022-10-16T03:58:56;98622.28;;;15.53;100.00
22743;BME280;11538;48.884;8.696;2022-10-16T04:01:23;98618.09;;;15.56;100.00
22743;BME280;11538;48.884;8.696;2022-10-16T04:03:50;98620.03;;;15.55;100.00
22743;BME280;11538;48.884;8.696;2022-10-16T04:06:16;98607.50;;;15.54;100.00
22743;BME280;11538;48.884;8.696;2022-10-16T04:08:43;98610.69;;;15.56;100.00
22743;BME280;11538;48.884;8.696;2022-10-16T04:11:10;98612.16;;;15.54;100.00
22743;BME280;11538;48.884;8.696;2022-10-16T04:13:37;98601.56;;;15.52;100.00
22743;BME280;11538;48.884;8.696;2022-10-16T04:16:04;98607.38;;;15.50;100.00
22743;BME280;11538;48.884;8.696;2022-10-16T04:18:30;98612.03;;;15.50;100.00
22743;BME280;11538;48.884;8.696;2022-10-16T04:21:02;98621.50;;;15.53;100.00
22743;BME280;11538;48.884;8.696;2022-10-16T04:23:29;98617.97;;;15.52;100.00
22743;BME280;11538;48.884;8.696;2022-10-16T04:25:56;98629.81;;;15.56;100.00
22743;BME280;11538;48.884;8.696;2022-10-16T04:28:23;98629.34;;;15.54;100.00
22743;BME280;11538;48.884;8.696;2022-10-16T04:30:49;98632.44;;;15.53;100.00
22743;BME280;11538;48.884;8.696;2022-10-16T04:33:16;98644.38;;;15.48;100.00
22743;BME280;11538;48.884;8.696;2022-10-16T04:35:43;98639.13;;;15.43;100.00
22743;BME280;11538;48.884;8.696;2022-10-16T04:38:10;98647.31;;;15.43;100.00
22743;BME280;11538;48.884;8.696;2022-10-16T04:40:37;98653.13;;;15.41;100.00
22743;BME280;11538;48.884;8.696;2022-10-16T04:43:04;98656.19;;;15.40;100.00
22743;BME280;11538;48.884;8.696;2022-10-16T04:45:31;98660.50;;;15.41;100.00
22743;BME280;11538;48.884;8.696;2022-10-16T04:47:58;98667.25;;;15.43;100.00
22743;BME280;11538;48.884;8.696;2022-10-16T04:50:25;98664.53;;;15.43;100.00
22743;BME280;11538;48.884;8.696;2022-10-16T04:52:52;98662.56;;;15.44;100.00
22743;BME280;11538;48.884;8.696;2022-10-16T04:55:19;98664.06;;;15.41;100.00
22743;BME280;11538;48.884;8.696;2022-10-16T04:57:46;98658.34;;;15.34;100.00
22743;BME280;11538;48.884;8.696;2022-10-16T05:00:12;98652.25;;;15.28;100.00
22743;BME280;11538;48.884;8.696;2022-10-16T05:02:39;98648.59;;;15.24;100.00
22743;BME280;11538;48.884;8.696;2022-10-16T05:05:06;98646.53;;;15.21;100.00
22743;BME280;11538;48.884;8.696;2022-10-16T05:07:33;98650.25;;;15.16;100.00
22743;BME280;11538;48.884;8.696;2022-10-16T05:10:00;98655.25;;;15.14;100.00
22743;BME280;11538;48.884;8.696;2022-10-16T05:12:27;98647.88;;;15.15;100.00
22743;BME280;11538;48.884;8.696;2022-10-16T05:14:53;98667.94;;;15.19;100.00
22743;BME280;11538;48.884;8.696;2022-10-16T05:17:25;98660.97;;;15.21;100.00
22743;BME280;11538;48.884;8.696;2022-10-16T05:19:53;98675.78;;;15.20;100.00
22743;BME280;11538;48.884;8.696;2022-10-16T05:22:19;98668.72;;;15.19;100.00
22743;BME280;11538;48.884;8.696;2022-10-16T05:24:46;98660.88;;;15.18;100.00
22743;BME280;11538;48.884;8.696;2022-10-16T05:27:13;98662.66;;;15.14;100.00
22743;BME280;11538;48.884;8.696;2022-10-16T05:29:46;98662.53;;;15.10;100.00
22743;BME280;11538;48.884;8.696;2022-10-16T05:32:17;98669.47;;;15.08;100.00
22743;BME280;11538;48.884;8.696;2022-10-16T05:34:45;98667.19;;;15.10;100.00
22743;BME280;11538;48.884;8.696;2022-10-16T05:37:12;98680.19;;;15.13;100.00
22743;BME280;11538;48.884;8.696;2022-10-16T05:39:39;98674.06;;;15.16;100.00
22743;BME280;11538;48.884;8.696;2022-10-16T05:42:06;98679.53;;;15.16;100.00
22743;BME280;11538;48.884;8.696;2022-10-16T05:44:33;98680.66;;;15.15;100.00
22743;BME280;11538;48.884;8.696;2022-10-16T05:47:05;98686.78;;;15.12;100.00
22743;BME280;11538;48.884;8.696;2022-10-16T05:49:31;98685.03;;;15.07;100.00
22743;BME280;11538;48.884;8.696;2022-10-16T05:52:02;98677.97;;;15.06;100.00
22743;BME280;11538;48.884;8.696;2022-10-16T05:54:29;98676.84;;;15.07;100.00
22743;BME280;11538;48.884;8.696;2022-10-16T05:56:55;98671.84;;;15.09;100.00
22743;BME280;11538;48.884;8.696;2022-10-16T05:59:22;98674.72;;;15.13;100.00
22743;BME280;11538;48.884;8.696;2022-10-16T06:01:49;98689.97;;;15.14;100.00
22743;BME280;11538;48.884;8.696;2022-10-16T06:04:16;98688.03;;;15.14;100.00
22743;BME280;11538;48.884;8.696;2022-10-16T06:06:42;98693.19;;;15.16;100.00
22743;BME280;11538;48.884;8.696;2022-10-16T06:09:09;98687.38;;;15.17;100.00
22743;BME280;11538;48.884;8.696;2022-10-16T06:11:36;98674.38;;;15.14;100.00
22743;BME280;11538;48.884;8.696;2022-10-16T06:14:03;98675.38;;;15.10;100.00
22743;BME280;11538;48.884;8.696;2022-10-16T06:16:34;98687.78;;;15.07;100.00
22743;BME280;11538;48.884;8.696;2022-10-16T06:19:03;98692.91;;;15.09;100.00
22743;BME280;11538;48.884;8.696;2022-10-16T06:21:32;98688.84;;;15.15;100.00
22743;BME280;11538;48.884;8.696;2022-10-16T06:23:59;98689.78;;;15.19;100.00
22743;BME280;11538;48.884;8.696;2022-10-16T06:26:29;98707.78;;;15.20;100.00
22743;BME280;11538;48.884;8.696;2022-10-16T06:28:58;98713.72;;;15.22;100.00
22743;BME280;11538;48.884;8.696;2022-10-16T06:31:27;98710.97;;;15.22;100.00
22743;BME280;11538;48.884;8.696;2022-10-16T06:33:57;98715.97;;;15.20;100.00
22743;BME280;11538;48.884;8.696;2022-10-16T06:36:25;98708.75;;;15.15;100.00
22743;BME280;11538;48.884;8.696;2022-10-16T06:38:52;98716.16;;;15.15;100.00
22743;BME280;11538;48.884;8.696;2022-10-16T06:41:21;98719.69;;;15.15;100.00
22743;BME280;11538;48.884;8.696;2022-10-16T06:43:48;98726.75;;;15.16;100.00
22743;BME280;11538;48.884;8.696;2022-10-16T06:46:17;98721.44;;;15.20;100.00
22743;BME280;11538;48.884;8.696;2022-10-16T06:48:44;98727.38;;;15.22;100.00
22743;BME280;11538;48.884;8.696;2022-10-16T06:51:16;98738.31;;;15.22;100.00
22743;BME280;11538;48.884;8.696;2022-10-16T06:53:45;98741.50;;;15.24;100.00
22743;BME280;11538;48.884;8.696;2022-10-16T06:56:31;98749.50;;;15.29;100.00
22743;BME280;11538;48.884;8.696;2022-10-16T06:58:58;98745.78;;;15.34;100.00
22743;BME280;11538;48.884;8.696;2022-10-16T07:01:26;98747.38;;;15.35;100.00
22743;BME280;11538;48.884;8.696;2022-10-16T07:03:53;98755.91;;;15.33;100.00
22743;BME280;11538;48.884;8.696;2022-10-16T07:06:22;98750.13;;;15.35;100.00
22743;BME280;11538;48.884;8.696;2022-10-16T07:08:50;98752.50;;;15.37;100.00
22743;BME280;11538;48.884;8.696;2022-10-16T07:11:19;98747.38;;;15.35;100.00
22743;BME280;11538;48.884;8.696;2022-10-16T07:13:46;98756.06;;;15.37;100.00
22743;BME280;11538;48.884;8.696;2022-10-16T07:16:23;98760.69;;;15.37;100.00
22743;BME280;11538;48.884;8.696;2022-10-16T07:18:50;98760.03;;;15.40;100.00
22743;BME280;11538;48.884;8.696;2022-10-16T07:21:21;98755.50;;;15.44;100.00
22743;BME280;11538;48.884;8.696;2022-10-16T07:23:53;98756.13;;;15.49;100.00
22743;BME280;11538;48.884;8.696;2022-10-16T07:26:22;98759.78;;;15.54;100.00
22743;BME280;11538;48.884;8.696;2022-10-16T07:28:49;98765.53;;;15.61;100.00
22743;BME280;11538;48.884;8.696;2022-10-16T07:31:17;98774.91;;;15.72;100.00
22743;BME280;11538;48.884;8.696;2022-10-16T07:33:48;98778.84;;;15.84;100.00
22743;BME280;11538;48.884;8.696;2022-10-16T07:36:16;98788.94;;;15.92;100.00
22743;BME280;11538;48.884;8.696;2022-10-16T07:38:44;98790.00;;;16.00;100.00
22743;BME280;11538;48.884;8.696;2022-10-16T07:41:15;98790.31;;;15.98;100.00
22743;BME280;11538;48.884;8.696;2022-10-16T07:43:50;98787.28;;;16.00;100.00
22743;BME280;11538;48.884;8.696;2022-10-16T07:46:18;98784.31;;;16.05;100.00
22743;BME280;11538;48.884;8.696;2022-10-16T07:48:46;98784.56;;;16.12;100.00
22743;BME280;11538;48.884;8.696;2022-10-16T07:51:19;98787.34;;;16.25;100.00
22743;BME280;11538;48.884;8.696;2022-10-16T07:53:47;98794.00;;;16.36;100.00
22743;BME280;11538;48.884;8.696;2022-10-16T07:56:15;98797.66;;;16.40;100.00
22743;BME280;11538;48.884;8.696;2022-10-16T07:58:42;98803.69;;;16.46;100.00
22743;BME280;11538;48.884;8.696;2022-10-16T08:01:10;98792.06;;;16.49;100.00
22743;BME280;11538;48.884;8.696;2022-10-16T08:03:38;98795.41;;;16.55;100.00
22743;BME280;11538;48.884;8.696;2022-10-16T08:06:08;98797.91;;;16.60;100.00
22743;BME280;11538;48.884;8.696;2022-10-16T08:08:35;98805.22;;;16.68;100.00
22743;BME280;11538;48.884;8.696;2022-10-16T08:11:02;98810.50;;;16.73;100.00
22743;BME280;11538;48.884;8.696;2022-10-16T08:13:32;98816.56;;;16.79;100.00
22743;BME280;11538;48.884;8.696;2022-10-16T08:15:59;98817.13;;;16.85;100.00
22743;BME280;11538;48.884;8.696;2022-10-16T08:18:26;98820.56;;;16.94;100.00
22743;BME280;11538;48.884;8.696;2022-10-16T08:20:57;98812.25;;;17.03;100.00
22743;BME280;11538;48.884;8.696;2022-10-16T08:23:25;98813.63;;;17.09;100.00
22743;BME280;11538;48.884;8.696;2022-10-16T08:25:55;98809.41;;;17.12;100.00
22743;BME280;11538;48.884;8.696;2022-10-16T08:28:22;98809.41;;;17.12;100.00
22743;BME280;11538;48.884;8.696;2022-10-16T08:30:49;98809.84;;;17.14;100.00
22743;BME280;11538;48.884;8.696;2022-10-16T08:33:16;98809.16;;;17.17;100.00
22743;BME280;11538;48.884;8.696;2022-10-16T08:35:50;98807.00;;;17.22;100.00
22743;BME280;11538;48.884;8.696;2022-10-16T08:38:17;98813.97;;;17.32;100.00
22743;BME280;11538;48.884;8.696;2022-10-16T08:40:44;98813.06;;;17.41;100.00
22743;BME280;11538;48.884;8.696;2022-10-16T08:43:41;98821.13;;;17.49;100.00
22743;BME280;11538;48.884;8.696;2022-10-16T08:49:16;98810.50;;;17.60;100.00
22743;BME280;11538;48.884;8.696;2022-10-16T08:51:44;98820.66;;;17.60;100.00
22743;BME280;11538;48.884;8.696;2022-10-16T08:54:24;98834.13;;;17.65;100.00
22743;BME280;11538;48.884;8.696;2022-10-16T08:56:56;98827.38;;;17.75;100.00
22743;BME280;11538;48.884;8.696;2022-10-16T08:59:23;98834.66;;;17.83;100.00
22743;BME280;11538;48.884;8.696;2022-10-16T09:01:51;98830.66;;;17.93;100.00
22743;BME280;11538;48.884;8.696;2022-10-16T09:04:44;98835.22;;;18.01;100.00
22743;BME280;11538;48.884;8.696;2022-10-16T09:07:37;98841.25;;;18.07;100.00
22743;BME280;11538;48.884;8.696;2022-10-16T09:16:21;98856.28;;;18.54;100.00
22743;BME280;11538;48.884;8.696;2022-10-16T09:21:31;98847.25;;;18.69;100.00
22743;BME280;11538;48.884;8.696;2022-10-16T09:24:12;98842.31;;;18.75;100.00
22743;BME280;11538;48.884;8.696;2022-10-16T09:26:41;98847.88;;;18.79;100.00
22743;BME280;11538;48.884;8.696;2022-10-16T09:29:15;98848.88;;;18.87;100.00
22743;BME280;11538;48.884;8.696;2022-10-16T09:31:43;98859.81;;;18.99;100.00
22743;BME280;11538;48.884;8.696;2022-10-16T09:34:24;98869.00;;;19.07;100.00
22743;BME280;11538;48.884;8.696;2022-10-16T09:36:57;98872.91;;;19.22;100.00
22743;BME280;11538;48.884;8.696;2022-10-16T09:39:24;98880.81;;;19.39;100.00
22743;BME280;11538;48.884;8.696;2022-10-16T09:41:51;98886.00;;;19.61;100.00
22743;BME280;11538;48.884;8.696;2022-10-16T09:44:26;98881.75;;;19.99;100.00
22743;BME280;11538;48.884;8.696;2022-10-16T09:47:05;98880.91;;;20.14;100.00
22743;BME280;11538;48.884;8.696;2022-10-16T09:49:32;98891.41;;;20.09;99.77
22743;BME280;11538;48.884;8.696;2022-10-16T09:52:04;98895.25;;;20.04;100.00
22743;BME280;11538;48.884;8.696;2022-10-16T09:54:31;98897.13;;;20.00;100.00
22743;BME280;11538;48.884;8.696;2022-10-16T09:57:06;98892.00;;;19.98;100.00
22743;BME280;11538;48.884;8.696;2022-10-16T09:59:46;98893.72;;;20.07;100.00
22743;BME280;11538;48.884;8.696;2022-10-16T10:02:15;98889.53;;;20.13;100.00
22743;BME280;11538;48.884;8.696;2022-10-16T10:04:51;98900.56;;;20.13;100.00
22743;BME280;11538;48.884;8.696;2022-10-16T10:07:28;98904.38;;;20.08;100.00
22743;BME280;11538;48.884;8.696;2022-10-16T10:10:00;98915.47;;;20.12;100.00
22743;BME280;11538;48.884;8.696;2022-10-16T10:12:29;98910.63;;;20.25;100.00
22743;BME280;11538;48.884;8.696;2022-10-16T10:15:06;98918.38;;;20.39;100.00
22743;BME280;11538;48.884;8.696;2022-10-16T10:17:33;98914.09;;;20.41;99.80
22743;BME280;11538;48.884;8.696;2022-10-16T10:20:24;98918.53;;;20.46;100.00
22743;BME280;11538;48.884;8.696;2022-10-16T10:22:52;98923.66;;;20.48;100.00
22743;BME280;11538;48.884;8.696;2022-10-16T10:25:30;98919.91;;;20.56;99.49
22743;BME280;11538;48.884;8.696;2022-10-16T10:31:03;98927.00;;;20.77;97.64
22743;BME280;11538;48.884;8.696;2022-10-16T10:33:52;98926.03;;;20.88;97.64
22743;BME280;11538;48.884;8.696;2022-10-16T10:36:37;98923.06;;;20.97;90.40
22743;BME280;11538;48.884;8.696;2022-10-16T10:39:45;98925.34;;;21.38;91.18
22743;BME280;11538;48.884;8.696;2022-10-16T10:47:54;98921.97;;;21.75;92.31
22743;BME280;11538;48.884;8.696;2022-10-16T10:50:26;98916.16;;;22.11;90.10
22743;BME280;11538;48.884;8.696;2022-10-16T10:53:10;98918.72;;;22.27;86.72
22743;BME280;11538;48.884;8.696;2022-10-16T10:55:56;98914.84;;;22.32;86.66
22743;BME280;11538;48.884;8.696;2022-10-16T10:58:57;98920.31;;;22.28;84.39
22743;BME280;11538;48.884;8.696;2022-10-16T11:06:53;98914.75;;;22.25;88.25
22743;BME280;11538;48.884;8.696;2022-10-16T11:12:18;98912.22;;;22.12;87.41
22743;BME280;11538;48.884;8.696;2022-10-16T11:17:23;98926.03;;;21.85;89.09
22743;BME280;11538;48.884;8.696;2022-10-16T11:19:56;98926.75;;;21.79;90.57
22743;BME280;11538;48.884;8.696;2022-10-16T11:22:33;98925.91;;;21.74;90.86
22743;BME280;11538;48.884;8.696;2022-10-16T11:30:55;98917.63;;;21.51;90.77
22743;BME280;11538;48.884;8.696;2022-10-16T11:33:38;98925.41;;;21.69;90.75
22743;BME280;11538;48.884;8.696;2022-10-16T11:36:25;98920.38;;;22.01;86.38
22743;BME280;11538;48.884;8.696;2022-10-16T11:41:48;98906.41;;;22.89;83.29
22743;BME280;11538;48.884;8.696;2022-10-16T11:47:23;98904.66;;;23.15;77.79
22743;BME280;11538;48.884;8.696;2022-10-16T11:53:21;98899.78;;;23.01;79.93
22743;BME280;11538;48.884;8.696;2022-10-16T11:55:51;98905.25;;;22.94;79.25
22743;BME280;11538;48.884;8.696;2022-10-16T11:58:24;98904.47;;;23.35;78.96
22743;BME280;11538;48.884;8.696;2022-10-16T12:03:39;98903.38;;;23.50;72.95
22743;BME280;11538;48.884;8.696;2022-10-16T12:08:52;98917.31;;;23.65;72.47
22743;BME280;11538;48.884;8.696;2022-10-16T12:14:20;98904.84;;;22.92;80.02
22743;BME280;11538;48.884;8.696;2022-10-16T12:19:24;98905.56;;;22.47;85.30
22743;BME280;11538;48.884;8.696;2022-10-16T12:21:52;98908.75;;;22.49;83.96
22743;BME280;11538;48.884;8.696;2022-10-16T12:24:35;98909.88;;;22.79;83.39
22743;BME280;11538;48.884;8.696;2022-10-16T12:27:06;98906.75;;;23.26;79.98
22743;BME280;11538;48.884;8.696;2022-10-16T12:29:41;98903.03;;;23.07;80.38
22743;BME280;11538;48.884;8.696;2022-10-16T12:32:46;98904.75;;;22.81;80.32
22743;BME280;11538;48.884;8.696;2022-10-16T12:35:26;98905.72;;;22.58;85.00
22743;BME280;11538;48.884;8.696;2022-10-16T12:38:07;98901.88;;;22.36;86.81
22743;BME280;11538;48.884;8.696;2022-10-16T12:40:46;98900.03;;;22.17;87.95
22743;BME280;11538;48.884;8.696;2022-10-16T12:46:05;98903.34;;;21.96;87.06
22743;BME280;11538;48.884;8.696;2022-10-16T12:48:33;98901.09;;;22.05;88.52
22743;BME280;11538;48.884;8.696;2022-10-16T12:54:04;98907.13;;;22.14;87.81
22743;BME280;11538;48.884;8.696;2022-10-16T12:59:16;98906.03;;;21.92;87.55
22743;BME280;11538;48.884;8.696;2022-10-16T13:04:31;98906.59;;;21.74;91.34
22743;BME280;11538;48.884;8.696;2022-10-16T13:07:20;98910.47;;;22.00;91.67
22743;BME280;11538;48.884;8.696;2022-10-16T13:10:10;98919.09;;;23.35;82.10
22743;BME280;11538;48.884;8.696;2022-10-16T13:21:16;98918.03;;;23.06;81.33
22743;BME280;11538;48.884;8.696;2022-10-16T13:27:09;98921.97;;;22.67;87.07
22743;BME280;11538;48.884;8.696;2022-10-16T13:29:38;98914.94;;;22.39;87.27
22743;BME280;11538;48.884;8.696;2022-10-16T13:32:10;98909.91;;;22.18;87.21
22743;BME280;11538;48.884;8.696;2022-10-16T13:34:46;98918.25;;;21.91;88.78
22743;BME280;11538;48.884;8.696;2022-10-16T13:37:20;98915.63;;;21.71;91.60
22743;BME280;11538;48.884;8.696;2022-10-16T13:39:48;98908.72;;;21.61;94.39
22743;BME280;11538;48.884;8.696;2022-10-16T13:42:26;98908.69;;;21.58;95.15
22743;BME280;11538;48.884;8.696;2022-10-16T13:44:55;98907.44;;;21.55;97.07
22743;BME280;11538;48.884;8.696;2022-10-16T13:47:28;98913.63;;;21.72;97.16
22743;BME280;11538;48.884;8.696;2022-10-16T13:50:16;98910.13;;;21.75;97.56
22743;BME280;11538;48.884;8.696;2022-10-16T13:52:43;98903.41;;;21.72;99.87
22743;BME280;11538;48.884;8.696;2022-10-16T13:55:13;98914.75;;;21.67;100.00
22743;BME280;11538;48.884;8.696;2022-10-16T13:57:41;98907.44;;;21.55;100.00
22743;BME280;11538;48.884;8.696;2022-10-16T14:00:24;98906.06;;;21.42;99.49
22743;BME280;11538;48.884;8.696;2022-10-16T14:03:05;98911.78;;;21.29;100.00
22743;BME280;11538;48.884;8.696;2022-10-16T14:05:34;98919.38;;;21.13;100.00
22743;BME280;11538;48.884;8.696;2022-10-16T14:08:01;98913.44;;;21.11;100.00
22743;BME280;11538;48.884;8.696;2022-10-16T14:10:30;98920.91;;;21.10;100.00
22743;BME280;11538;48.884;8.696;2022-10-16T14:13:04;98917.72;;;21.08;100.00
22743;BME280;11538;48.884;8.696;2022-10-16T14:15:34;98924.78;;;21.06;100.00
22743;BME280;11538;48.884;8.696;2022-10-16T14:18:03;98921.50;;;21.00;100.00
22743;BME280;11538;48.884;8.696;2022-10-16T14:20:32;98915.94;;;20.96;100.00
22743;BME280;11538;48.884;8.696;2022-10-16T14:23:17;98918.28;;;20.94;100.00
22743;BME280;11538;48.884;8.696;2022-10-16T14:25:52;98917.03;;;20.92;100.00
22743;BME280;11538;48.884;8.696;2022-10-16T14:28:21;98923.34;;;20.92;100.00
22743;BME280;11538;48.884;8.696;2022-10-16T14:30:55;98927.72;;;20.93;100.00
22743;BME280;11538;48.884;8.696;2022-10-16T14:33:31;98925.50;;;21.02;100.00
22743;BME280;11538;48.884;8.696;2022-10-16T14:36:04;98924.81;;;21.09;100.00
22743;BME280;11538;48.884;8.696;2022-10-16T14:38:32;98920.16;;;21.13;100.00